sensor_id;sensor_type;location;lat;lon;timestamp;P1;durP1;ratioP1;P2;durP2;ratioP2
53497;SDS011;39382;47.168;16.008;2023-03-23T00:00:07;7.88;;;4.55;;
53497;SDS011;39382;47.168;16.008;2023-03-23T00:02:36;5.57;;;3.72;;
53497;SDS011;39382;47.168;16.008;2023-03-23T00:05:03;5.95;;;3.70;;
53497;SDS011;39382;47.168;16.008;2023-03-23T00:07:30;14.25;;;3.53;;
53497;SDS011;39382;47.168;16.008;2023-03-23T00:09:55;6.03;;;4.10;;
53497;SDS011;39382;47.168;16.008;2023-03-23T00:12:21;7.05;;;4.13;;
53497;SDS011;39382;47.168;16.008;2023-03-23T00:14:54;6.22;;;4.03;;
53497;SDS011;39382;47.168;16.008;2023-03-23T00:17:20;7.60;;;4.32;;
53497;SDS011;39382;47.168;16.008;2023-03-23T00:19:46;7.10;;;4.18;;
53497;SDS011;39382;47.168;16.008;2023-03-23T00:22:13;7.35;;;3.67;;
53497;SDS011;39382;47.168;16.008;2023-03-23T00:24:40;7.82;;;3.67;;
53497;SDS011;39382;47.168;16.008;2023-03-23T00:27:06;7.15;;;4.47;;
53497;SDS011;39382;47.168;16.008;2023-03-23T00:29:33;8.90;;;3.92;;
53497;SDS011;39382;47.168;16.008;2023-03-23T00:31:59;5.13;;;3.78;;
53497;SDS011;39382;47.168;16.008;2023-03-23T00:34:25;8.20;;;4.00;;
53497;SDS011;39382;47.168;16.008;2023-03-23T00:36:54;6.07;;;4.47;;
53497;SDS011;39382;47.168;16.008;2023-03-23T00:39:23;5.72;;;3.58;;
53497;SDS011;39382;47.168;16.008;2023-03-23T00:41:50;5.78;;;3.58;;
53497;SDS011;39382;47.168;16.008;2023-03-23T00:44:16;13.18;;;3.38;;
53497;SDS011;39382;47.168;16.008;2023-03-23T00:46:46;6.22;;;3.33;;
53497;SDS011;39382;47.168;16.008;2023-03-23T00:49:14;5.97;;;3.67;;
53497;SDS011;39382;47.168;16.008;2023-03-23T00:51:44;8.38;;;4.35;;
53497;SDS011;39382;47.168;16.008;2023-03-23T00:54:10;5.60;;;3.83;;
53497;SDS011;39382;47.168;16.008;2023-03-23T00:56:37;5.43;;;3.83;;
53497;SDS011;39382;47.168;16.008;2023-03-23T00:59:04;6.97;;;4.32;;
53497;SDS011;39382;47.168;16.008;2023-03-23T01:01:30;7.65;;;4.20;;
53497;SDS011;39382;47.168;16.008;2023-03-23T01:04:00;6.50;;;3.30;;
53497;SDS011;39382;47.168;16.008;2023-03-23T01:06:29;14.95;;;4.15;;
53497;SDS011;39382;47.168;16.008;2023-03-23T01:09:12;7.38;;;4.60;;
53497;SDS011;39382;47.168;16.008;2023-03-23T01:11:45;7.15;;;4.18;;
53497;SDS011;39382;47.168;16.008;2023-03-23T01:14:12;7.53;;;3.92;;
53497;SDS011;39382;47.168;16.008;2023-03-23T01:16:40;6.15;;;4.00;;
53497;SDS011;39382;47.168;16.008;2023-03-23T01:19:06;6.60;;;4.32;;
53497;SDS011;39382;47.168;16.008;2023-03-23T01:21:31;8.13;;;3.83;;
53497;SDS011;39382;47.168;16.008;2023-03-23T01:23:57;9.00;;;4.60;;
53497;SDS011;39382;47.168;16.008;2023-03-23T01:26:24;6.03;;;4.15;;
53497;SDS011;39382;47.168;16.008;2023-03-23T01:28:51;8.65;;;3.85;;
53497;SDS011;39382;47.168;16.008;2023-03-23T01:31:18;5.05;;;3.90;;
53497;SDS011;39382;47.168;16.008;2023-03-23T01:33:46;8.35;;;4.75;;
53497;SDS011;39382;47.168;16.008;2023-03-23T01:36:14;10.80;;;4.40;;
53497;SDS011;39382;47.168;16.008;2023-03-23T01:38:46;10.65;;;4.45;;
53497;SDS011;39382;47.168;16.008;2023-03-23T01:41:13;7.53;;;4.10;;
53497;SDS011;39382;47.168;16.008;2023-03-23T01:46:30;5.75;;;3.72;;
53497;SDS011;39382;47.168;16.008;2023-03-23T01:48:57;8.35;;;3.90;;
53497;SDS011;39382;47.168;16.008;2023-03-23T01:51:31;7.90;;;3.60;;
53497;SDS011;39382;47.168;16.008;2023-03-23T01:54:02;6.70;;;3.83;;
53497;SDS011;39382;47.168;16.008;2023-03-23T01:56:33;6.28;;;4.20;;
53497;SDS011;39382;47.168;16.008;2023-03-23T01:59:11;5.82;;;3.90;;
53497;SDS011;39382;47.168;16.008;2023-03-23T02:01:38;5.35;;;3.17;;
53497;SDS011;39382;47.168;16.008;2023-03-23T02:04:09;4.55;;;3.30;;
53497;SDS011;39382;47.168;16.008;2023-03-23T02:06:39;6.25;;;3.70;;
53497;SDS011;39382;47.168;16.008;2023-03-23T02:09:05;6.38;;;3.85;;
53497;SDS011;39382;47.168;16.008;2023-03-23T02:11:32;4.15;;;3.05;;
53497;SDS011;39382;47.168;16.008;2023-03-23T02:13:57;5.55;;;3.58;;
53497;SDS011;39382;47.168;16.008;2023-03-23T02:27:06;6.93;;;3.75;;
53497;SDS011;39382;47.168;16.008;2023-03-23T02:29:42;6.78;;;3.60;;
53497;SDS011;39382;47.168;16.008;2023-03-23T02:32:24;5.30;;;3.83;;
53497;SDS011;39382;47.168;16.008;2023-03-23T02:34:56;4.07;;;3.47;;
53497;SDS011;39382;47.168;16.008;2023-03-23T02:37:38;12.90;;;3.38;;
53497;SDS011;39382;47.168;16.008;2023-03-23T02:42:42;7.43;;;2.90;;
53497;SDS011;39382;47.168;16.008;2023-03-23T02:45:12;7.18;;;4.03;;
53497;SDS011;39382;47.168;16.008;2023-03-23T02:47:40;4.97;;;3.42;;
53497;SDS011;39382;47.168;16.008;2023-03-23T02:50:08;5.22;;;3.83;;
53497;SDS011;39382;47.168;16.008;2023-03-23T02:52:38;7.50;;;3.63;;
53497;SDS011;39382;47.168;16.008;2023-03-23T02:55:06;5.47;;;2.75;;
53497;SDS011;39382;47.168;16.008;2023-03-23T02:57:33;6.68;;;3.42;;
53497;SDS011;39382;47.168;16.008;2023-03-23T03:00:00;4.75;;;3.03;;
53497;SDS011;39382;47.168;16.008;2023-03-23T03:02:32;5.85;;;3.60;;
53497;SDS011;39382;47.168;16.008;2023-03-23T03:10:52;5.68;;;3.53;;
53497;SDS011;39382;47.168;16.008;2023-03-23T03:19:24;4.78;;;3.10;;
53497;SDS011;39382;47.168;16.008;2023-03-23T03:21:58;7.22;;;3.88;;
53497;SDS011;39382;47.168;16.008;2023-03-23T03:24:26;6.40;;;4.03;;
53497;SDS011;39382;47.168;16.008;2023-03-23T03:26:54;8.82;;;3.85;;
53497;SDS011;39382;47.168;16.008;2023-03-23T03:29:23;5.70;;;3.78;;
53497;SDS011;39382;47.168;16.008;2023-03-23T03:31:54;5.72;;;3.53;;
53497;SDS011;39382;47.168;16.008;2023-03-23T03:34:21;5.75;;;3.28;;
53497;SDS011;39382;47.168;16.008;2023-03-23T03:36:49;7.15;;;4.22;;
53497;SDS011;39382;47.168;16.008;2023-03-23T03:39:18;5.85;;;3.35;;
53497;SDS011;39382;47.168;16.008;2023-03-23T03:41:45;9.98;;;3.75;;
53497;SDS011;39382;47.168;16.008;2023-03-23T03:44:11;4.72;;;3.33;;
53497;SDS011;39382;47.168;16.008;2023-03-23T03:46:37;5.15;;;3.60;;
53497;SDS011;39382;47.168;16.008;2023-03-23T03:49:05;5.63;;;3.85;;
53497;SDS011;39382;47.168;16.008;2023-03-23T03:51:32;9.10;;;4.18;;
53497;SDS011;39382;47.168;16.008;2023-03-23T03:53:58;5.40;;;3.92;;
53497;SDS011;39382;47.168;16.008;2023-03-23T03:56:25;9.13;;;3.67;;
53497;SDS011;39382;47.168;16.008;2023-03-23T03:58:51;5.97;;;3.63;;
53497;SDS011;39382;47.168;16.008;2023-03-23T04:01:18;7.45;;;3.67;;
53497;SDS011;39382;47.168;16.008;2023-03-23T04:03:46;11.35;;;4.40;;
53497;SDS011;39382;47.168;16.008;2023-03-23T04:06:12;16.15;;;4.25;;
53497;SDS011;39382;47.168;16.008;2023-03-23T04:08:38;8.70;;;3.75;;
53497;SDS011;39382;47.168;16.008;2023-03-23T04:11:06;4.88;;;3.53;;
53497;SDS011;39382;47.168;16.008;2023-03-23T04:13:33;5.75;;;3.38;;
53497;SDS011;39382;47.168;16.008;2023-03-23T04:15:59;8.10;;;3.88;;
53497;SDS011;39382;47.168;16.008;2023-03-23T04:18:25;5.03;;;3.53;;
53497;SDS011;39382;47.168;16.008;2023-03-23T04:20:51;6.68;;;3.88;;
53497;SDS011;39382;47.168;16.008;2023-03-23T04:23:17;9.43;;;4.60;;
53497;SDS011;39382;47.168;16.008;2023-03-23T04:25:48;6.55;;;4.03;;
53497;SDS011;39382;47.168;16.008;2023-03-23T04:28:16;5.13;;;3.25;;
53497;SDS011;39382;47.168;16.008;2023-03-23T04:30:43;7.13;;;4.28;;
53497;SDS011;39382;47.168;16.008;2023-03-23T04:33:10;6.45;;;3.80;;
53497;SDS011;39382;47.168;16.008;2023-03-23T04:35:40;4.80;;;3.55;;
53497;SDS011;39382;47.168;16.008;2023-03-23T04:38:07;5.00;;;3.85;;
53497;SDS011;39382;47.168;16.008;2023-03-23T04:40:37;6.95;;;4.38;;
53497;SDS011;39382;47.168;16.008;2023-03-23T04:43:04;5.85;;;4.25;;
53497;SDS011;39382;47.168;16.008;2023-03-23T04:45:31;5.50;;;3.45;;
53497;SDS011;39382;47.168;16.008;2023-03-23T04:47:58;7.75;;;4.15;;
53497;SDS011;39382;47.168;16.008;2023-03-23T04:50:26;5.18;;;3.88;;
53497;SDS011;39382;47.168;16.008;2023-03-23T04:52:55;9.82;;;4.28;;
53497;SDS011;39382;47.168;16.008;2023-03-23T04:55:22;6.00;;;4.38;;
53497;SDS011;39382;47.168;16.008;2023-03-23T04:57:49;5.75;;;4.10;;
53497;SDS011;39382;47.168;16.008;2023-03-23T05:00:15;6.90;;;4.30;;
53497;SDS011;39382;47.168;16.008;2023-03-23T05:02:42;7.03;;;4.07;;
53497;SDS011;39382;47.168;16.008;2023-03-23T05:05:12;6.13;;;4.10;;
53497;SDS011;39382;47.168;16.008;2023-03-23T05:07:39;6.78;;;4.78;;
53497;SDS011;39382;47.168;16.008;2023-03-23T05:10:07;7.97;;;4.60;;
53497;SDS011;39382;47.168;16.008;2023-03-23T05:12:35;7.38;;;4.18;;
53497;SDS011;39382;47.168;16.008;2023-03-23T05:15:01;7.13;;;5.00;;
53497;SDS011;39382;47.168;16.008;2023-03-23T05:17:27;12.43;;;4.88;;
53497;SDS011;39382;47.168;16.008;2023-03-23T05:19:55;9.50;;;5.70;;
53497;SDS011;39382;47.168;16.008;2023-03-23T05:22:21;7.07;;;4.30;;
53497;SDS011;39382;47.168;16.008;2023-03-23T05:24:48;10.55;;;4.90;;
53497;SDS011;39382;47.168;16.008;2023-03-23T05:27:16;8.10;;;5.13;;
53497;SDS011;39382;47.168;16.008;2023-03-23T05:29:44;11.93;;;5.25;;
53497;SDS011;39382;47.168;16.008;2023-03-23T05:32:16;14.05;;;5.63;;
53497;SDS011;39382;47.168;16.008;2023-03-23T05:34:42;10.10;;;5.38;;
53497;SDS011;39382;47.168;16.008;2023-03-23T05:37:08;10.88;;;5.93;;
53497;SDS011;39382;47.168;16.008;2023-03-23T05:39:35;11.38;;;6.70;;
53497;SDS011;39382;47.168;16.008;2023-03-23T05:42:01;12.63;;;5.93;;
53497;SDS011;39382;47.168;16.008;2023-03-23T05:44:28;12.15;;;5.97;;
53497;SDS011;39382;47.168;16.008;2023-03-23T05:46:54;13.88;;;5.40;;
53497;SDS011;39382;47.168;16.008;2023-03-23T05:49:20;9.40;;;5.50;;
53497;SDS011;39382;47.168;16.008;2023-03-23T05:51:46;10.20;;;5.15;;
53497;SDS011;39382;47.168;16.008;2023-03-23T05:54:13;8.88;;;5.13;;
53497;SDS011;39382;47.168;16.008;2023-03-23T05:56:39;14.07;;;6.32;;
53497;SDS011;39382;47.168;16.008;2023-03-23T05:59:06;8.98;;;5.32;;
53497;SDS011;39382;47.168;16.008;2023-03-23T06:01:32;8.27;;;5.63;;
53497;SDS011;39382;47.168;16.008;2023-03-23T06:03:58;7.78;;;5.35;;
53497;SDS011;39382;47.168;16.008;2023-03-23T06:06:27;8.73;;;6.30;;
53497;SDS011;39382;47.168;16.008;2023-03-23T06:08:54;10.73;;;6.53;;
53497;SDS011;39382;47.168;16.008;2023-03-23T06:11:21;9.95;;;5.95;;
53497;SDS011;39382;47.168;16.008;2023-03-23T06:13:48;8.25;;;5.38;;
53497;SDS011;39382;47.168;16.008;2023-03-23T06:16:14;8.70;;;5.45;;
53497;SDS011;39382;47.168;16.008;2023-03-23T06:18:40;8.23;;;4.75;;
53497;SDS011;39382;47.168;16.008;2023-03-23T06:21:07;13.43;;;5.82;;
53497;SDS011;39382;47.168;16.008;2023-03-23T06:23:34;7.78;;;5.00;;
53497;SDS011;39382;47.168;16.008;2023-03-23T06:26:03;11.13;;;5.40;;
53497;SDS011;39382;47.168;16.008;2023-03-23T06:28:30;8.27;;;5.32;;
53497;SDS011;39382;47.168;16.008;2023-03-23T06:31:00;10.75;;;5.82;;
53497;SDS011;39382;47.168;16.008;2023-03-23T06:33:26;14.60;;;6.63;;
53497;SDS011;39382;47.168;16.008;2023-03-23T06:35:52;10.60;;;5.90;;
53497;SDS011;39382;47.168;16.008;2023-03-23T06:38:18;8.63;;;5.93;;
53497;SDS011;39382;47.168;16.008;2023-03-23T06:40:44;10.00;;;5.85;;
53497;SDS011;39382;47.168;16.008;2023-03-23T06:43:11;16.75;;;7.55;;
53497;SDS011;39382;47.168;16.008;2023-03-23T06:45:38;11.07;;;6.97;;
53497;SDS011;39382;47.168;16.008;2023-03-23T06:48:04;9.48;;;6.22;;
53497;SDS011;39382;47.168;16.008;2023-03-23T06:50:30;11.90;;;7.43;;
53497;SDS011;39382;47.168;16.008;2023-03-23T06:52:56;9.43;;;6.70;;
53497;SDS011;39382;47.168;16.008;2023-03-23T06:55:22;10.18;;;6.75;;
53497;SDS011;39382;47.168;16.008;2023-03-23T06:57:47;11.60;;;6.25;;
53497;SDS011;39382;47.168;16.008;2023-03-23T07:00:13;14.05;;;5.97;;
53497;SDS011;39382;47.168;16.008;2023-03-23T07:02:40;11.23;;;5.55;;
53497;SDS011;39382;47.168;16.008;2023-03-23T07:05:06;7.72;;;5.43;;
53497;SDS011;39382;47.168;16.008;2023-03-23T07:07:34;8.60;;;4.95;;
53497;SDS011;39382;47.168;16.008;2023-03-23T07:10:00;7.00;;;5.43;;
53497;SDS011;39382;47.168;16.008;2023-03-23T07:12:27;10.27;;;5.93;;
53497;SDS011;39382;47.168;16.008;2023-03-23T07:14:53;12.93;;;7.07;;
53497;SDS011;39382;47.168;16.008;2023-03-23T07:17:19;6.20;;;4.95;;
53497;SDS011;39382;47.168;16.008;2023-03-23T07:19:45;7.57;;;5.20;;
53497;SDS011;39382;47.168;16.008;2023-03-23T07:22:11;16.33;;;6.90;;
53497;SDS011;39382;47.168;16.008;2023-03-23T07:24:37;6.18;;;4.90;;
53497;SDS011;39382;47.168;16.008;2023-03-23T07:27:02;8.73;;;6.05;;
53497;SDS011;39382;47.168;16.008;2023-03-23T07:29:28;12.02;;;5.88;;
53497;SDS011;39382;47.168;16.008;2023-03-23T07:31:54;9.75;;;5.43;;
53497;SDS011;39382;47.168;16.008;2023-03-23T07:34:21;7.93;;;5.43;;
53497;SDS011;39382;47.168;16.008;2023-03-23T07:36:47;7.93;;;5.00;;
53497;SDS011;39382;47.168;16.008;2023-03-23T07:39:13;7.38;;;5.00;;
53497;SDS011;39382;47.168;16.008;2023-03-23T07:41:39;19.48;;;5.80;;
53497;SDS011;39382;47.168;16.008;2023-03-23T07:44:05;8.05;;;4.70;;
53497;SDS011;39382;47.168;16.008;2023-03-23T07:46:31;7.78;;;4.30;;
53497;SDS011;39382;47.168;16.008;2023-03-23T07:48:58;7.53;;;4.80;;
53497;SDS011;39382;47.168;16.008;2023-03-23T07:51:25;8.35;;;5.70;;
53497;SDS011;39382;47.168;16.008;2023-03-23T07:53:50;11.20;;;4.45;;
53497;SDS011;39382;47.168;16.008;2023-03-23T07:56:16;8.75;;;4.95;;
53497;SDS011;39382;47.168;16.008;2023-03-23T07:58:45;9.65;;;5.15;;
53497;SDS011;39382;47.168;16.008;2023-03-23T08:01:11;6.90;;;4.88;;
53497;SDS011;39382;47.168;16.008;2023-03-23T08:03:37;6.38;;;4.60;;
53497;SDS011;39382;47.168;16.008;2023-03-23T08:06:03;7.28;;;5.05;;
53497;SDS011;39382;47.168;16.008;2023-03-23T08:08:30;10.98;;;5.82;;
53497;SDS011;39382;47.168;16.008;2023-03-23T08:10:56;12.30;;;6.03;;
53497;SDS011;39382;47.168;16.008;2023-03-23T08:13:22;10.02;;;5.45;;
53497;SDS011;39382;47.168;16.008;2023-03-23T08:15:49;8.93;;;5.75;;
53497;SDS011;39382;47.168;16.008;2023-03-23T08:18:16;8.40;;;5.45;;
53497;SDS011;39382;47.168;16.008;2023-03-23T08:20:42;7.43;;;5.10;;
53497;SDS011;39382;47.168;16.008;2023-03-23T08:23:09;13.25;;;9.00;;
53497;SDS011;39382;47.168;16.008;2023-03-23T08:25:35;9.35;;;6.40;;
53497;SDS011;39382;47.168;16.008;2023-03-23T08:28:02;7.82;;;5.22;;
53497;SDS011;39382;47.168;16.008;2023-03-23T08:30:29;6.90;;;5.18;;
53497;SDS011;39382;47.168;16.008;2023-03-23T08:32:56;8.25;;;4.18;;
53497;SDS011;39382;47.168;16.008;2023-03-23T08:35:23;6.03;;;3.95;;
53497;SDS011;39382;47.168;16.008;2023-03-23T08:37:49;9.88;;;4.57;;
53497;SDS011;39382;47.168;16.008;2023-03-23T08:40:16;5.93;;;4.28;;
53497;SDS011;39382;47.168;16.008;2023-03-23T08:42:44;5.57;;;4.35;;
53497;SDS011;39382;47.168;16.008;2023-03-23T08:45:12;7.63;;;4.25;;
53497;SDS011;39382;47.168;16.008;2023-03-23T08:47:41;5.13;;;4.05;;
53497;SDS011;39382;47.168;16.008;2023-03-23T08:50:07;7.50;;;4.50;;
53497;SDS011;39382;47.168;16.008;2023-03-23T08:52:36;6.60;;;4.22;;
53497;SDS011;39382;47.168;16.008;2023-03-23T08:55:02;5.38;;;3.60;;
53497;SDS011;39382;47.168;16.008;2023-03-23T08:57:28;6.15;;;4.00;;
53497;SDS011;39382;47.168;16.008;2023-03-23T08:59:54;10.02;;;5.10;;
53497;SDS011;39382;47.168;16.008;2023-03-23T09:02:25;8.48;;;6.38;;
53497;SDS011;39382;47.168;16.008;2023-03-23T09:04:52;6.10;;;3.95;;
53497;SDS011;39382;47.168;16.008;2023-03-23T09:07:18;6.80;;;4.57;;
53497;SDS011;39382;47.168;16.008;2023-03-23T09:09:45;7.45;;;4.43;;
53497;SDS011;39382;47.168;16.008;2023-03-23T09:12:10;12.13;;;3.88;;
53497;SDS011;39382;47.168;16.008;2023-03-23T09:14:37;6.50;;;3.97;;
53497;SDS011;39382;47.168;16.008;2023-03-23T09:17:04;4.70;;;3.78;;
53497;SDS011;39382;47.168;16.008;2023-03-23T09:19:31;11.75;;;4.95;;
53497;SDS011;39382;47.168;16.008;2023-03-23T09:21:58;7.72;;;4.13;;
53497;SDS011;39382;47.168;16.008;2023-03-23T09:24:25;12.93;;;4.28;;
53497;SDS011;39382;47.168;16.008;2023-03-23T09:26:51;7.03;;;4.05;;
53497;SDS011;39382;47.168;16.008;2023-03-23T09:29:17;7.40;;;4.13;;
53497;SDS011;39382;47.168;16.008;2023-03-23T09:31:43;4.72;;;3.90;;
53497;SDS011;39382;47.168;16.008;2023-03-23T09:34:11;6.82;;;3.70;;
53497;SDS011;39382;47.168;16.008;2023-03-23T09:36:38;6.10;;;3.88;;
53497;SDS011;39382;47.168;16.008;2023-03-23T09:39:04;4.32;;;3.60;;
53497;SDS011;39382;47.168;16.008;2023-03-23T09:44:18;7.65;;;3.78;;
53497;SDS011;39382;47.168;16.008;2023-03-23T09:47:01;4.68;;;3.97;;
53497;SDS011;39382;47.168;16.008;2023-03-23T09:49:38;7.55;;;3.58;;
53497;SDS011;39382;47.168;16.008;2023-03-23T09:52:15;6.70;;;3.60;;
53497;SDS011;39382;47.168;16.008;2023-03-23T09:54:43;12.20;;;4.03;;
53497;SDS011;39382;47.168;16.008;2023-03-23T09:57:22;5.28;;;3.60;;
53497;SDS011;39382;47.168;16.008;2023-03-23T10:00:16;10.55;;;4.68;;
53497;SDS011;39382;47.168;16.008;2023-03-23T10:08:08;6.38;;;3.78;;
53497;SDS011;39382;47.168;16.008;2023-03-23T10:10:42;5.30;;;3.90;;
53497;SDS011;39382;47.168;16.008;2023-03-23T10:16:25;4.38;;;3.20;;
53497;SDS011;39382;47.168;16.008;2023-03-23T10:19:01;6.25;;;4.38;;
53497;SDS011;39382;47.168;16.008;2023-03-23T10:21:37;6.03;;;3.38;;
53497;SDS011;39382;47.168;16.008;2023-03-23T10:24:13;7.57;;;4.07;;
53497;SDS011;39382;47.168;16.008;2023-03-23T10:32:47;4.43;;;3.42;;
53497;SDS011;39382;47.168;16.008;2023-03-23T10:35:25;6.05;;;4.00;;
53497;SDS011;39382;47.168;16.008;2023-03-23T10:38:02;11.43;;;3.50;;
53497;SDS011;39382;47.168;16.008;2023-03-23T10:40:31;4.60;;;3.72;;
53497;SDS011;39382;47.168;16.008;2023-03-23T10:43:09;7.47;;;3.75;;
53497;SDS011;39382;47.168;16.008;2023-03-23T10:45:35;6.28;;;3.92;;
53497;SDS011;39382;47.168;16.008;2023-03-23T10:50:36;11.18;;;4.35;;
53497;SDS011;39382;47.168;16.008;2023-03-23T10:53:07;6.85;;;3.92;;
53497;SDS011;39382;47.168;16.008;2023-03-23T10:55:48;4.78;;;3.83;;
53497;SDS011;39382;47.168;16.008;2023-03-23T10:58:22;6.57;;;4.68;;
53497;SDS011;39382;47.168;16.008;2023-03-23T11:00:57;4.68;;;3.83;;
53497;SDS011;39382;47.168;16.008;2023-03-23T11:03:27;5.35;;;3.88;;
53497;SDS011;39382;47.168;16.008;2023-03-23T11:06:01;9.02;;;4.35;;
53497;SDS011;39382;47.168;16.008;2023-03-23T11:08:30;7.93;;;4.75;;
53497;SDS011;39382;47.168;16.008;2023-03-23T11:16:28;5.57;;;4.30;;
53497;SDS011;39382;47.168;16.008;2023-03-23T11:18:59;11.80;;;4.50;;
53497;SDS011;39382;47.168;16.008;2023-03-23T11:21:36;6.10;;;4.38;;
53497;SDS011;39382;47.168;16.008;2023-03-23T11:24:03;4.63;;;4.00;;
53497;SDS011;39382;47.168;16.008;2023-03-23T11:26:31;7.13;;;5.32;;
53497;SDS011;39382;47.168;16.008;2023-03-23T11:31:32;6.50;;;4.82;;
53497;SDS011;39382;47.168;16.008;2023-03-23T11:34:14;6.68;;;4.20;;
53497;SDS011;39382;47.168;16.008;2023-03-23T11:36:50;6.10;;;4.53;;
53497;SDS011;39382;47.168;16.008;2023-03-23T11:41:50;6.10;;;4.53;;
53497;SDS011;39382;47.168;16.008;2023-03-23T11:44:16;5.85;;;4.95;;
53497;SDS011;39382;47.168;16.008;2023-03-23T11:52:40;6.60;;;4.82;;
53497;SDS011;39382;47.168;16.008;2023-03-23T11:55:34;5.90;;;4.90;;
53497;SDS011;39382;47.168;16.008;2023-03-23T11:58:15;11.10;;;5.15;;
53497;SDS011;39382;47.168;16.008;2023-03-23T12:00:46;9.63;;;5.10;;
53497;SDS011;39382;47.168;16.008;2023-03-23T12:03:31;6.53;;;4.97;;
53497;SDS011;39382;47.168;16.008;2023-03-23T12:06:06;6.25;;;5.47;;
53497;SDS011;39382;47.168;16.008;2023-03-23T12:13:54;11.20;;;5.32;;
53497;SDS011;39382;47.168;16.008;2023-03-23T12:19:30;8.65;;;4.50;;
53497;SDS011;39382;47.168;16.008;2023-03-23T12:45:37;7.82;;;5.20;;
53497;SDS011;39382;47.168;16.008;2023-03-23T12:48:32;7.10;;;5.03;;
53497;SDS011;39382;47.168;16.008;2023-03-23T12:59:19;11.52;;;5.68;;
53497;SDS011;39382;47.168;16.008;2023-03-23T13:02:15;7.63;;;5.68;;
53497;SDS011;39382;47.168;16.008;2023-03-23T13:04:43;9.93;;;5.57;;
53497;SDS011;39382;47.168;16.008;2023-03-23T13:07:14;9.02;;;5.68;;
53497;SDS011;39382;47.168;16.008;2023-03-23T13:12:38;9.55;;;4.95;;
53497;SDS011;39382;47.168;16.008;2023-03-23T13:15:20;8.05;;;5.28;;
53497;SDS011;39382;47.168;16.008;2023-03-23T13:31:20;5.28;;;4.35;;
53497;SDS011;39382;47.168;16.008;2023-03-23T13:34:01;5.15;;;3.85;;
53497;SDS011;39382;47.168;16.008;2023-03-23T13:36:36;5.78;;;3.85;;
53497;SDS011;39382;47.168;16.008;2023-03-23T13:39:17;7.47;;;3.92;;
53497;SDS011;39382;47.168;16.008;2023-03-23T14:10:52;8.60;;;4.60;;
53497;SDS011;39382;47.168;16.008;2023-03-23T14:13:33;7.22;;;3.90;;
53497;SDS011;39382;47.168;16.008;2023-03-23T14:16:20;10.02;;;4.60;;
53497;SDS011;39382;47.168;16.008;2023-03-23T14:19:19;5.55;;;4.15;;
53497;SDS011;39382;47.168;16.008;2023-03-23T14:21:50;5.95;;;3.85;;
53497;SDS011;39382;47.168;16.008;2023-03-23T14:24:24;8.25;;;4.40;;
53497;SDS011;39382;47.168;16.008;2023-03-23T14:27:00;7.90;;;4.72;;
53497;SDS011;39382;47.168;16.008;2023-03-23T14:29:39;7.25;;;4.03;;
53497;SDS011;39382;47.168;16.008;2023-03-23T14:32:06;5.93;;;3.53;;
53497;SDS011;39382;47.168;16.008;2023-03-23T14:34:35;7.10;;;4.95;;
53497;SDS011;39382;47.168;16.008;2023-03-23T14:37:01;7.70;;;4.65;;
53497;SDS011;39382;47.168;16.008;2023-03-23T14:39:28;8.45;;;4.15;;
53497;SDS011;39382;47.168;16.008;2023-03-23T14:42:03;6.65;;;4.03;;
53497;SDS011;39382;47.168;16.008;2023-03-23T14:44:43;6.50;;;4.30;;
53497;SDS011;39382;47.168;16.008;2023-03-23T14:47:27;7.57;;;4.27;;
53497;SDS011;39382;47.168;16.008;2023-03-23T14:49:57;7.45;;;4.38;;
53497;SDS011;39382;47.168;16.008;2023-03-23T14:52:26;7.07;;;4.25;;
53497;SDS011;39382;47.168;16.008;2023-03-23T14:54:53;5.97;;;4.05;;
53497;SDS011;39382;47.168;16.008;2023-03-23T14:57:26;7.03;;;4.20;;
53497;SDS011;39382;47.168;16.008;2023-03-23T14:59:53;6.82;;;4.00;;
53497;SDS011;39382;47.168;16.008;2023-03-23T15:04:59;4.03;;;3.67;;
53497;SDS011;39382;47.168;16.008;2023-03-23T15:07:35;8.20;;;4.20;;
53497;SDS011;39382;47.168;16.008;2023-03-23T15:10:07;15.48;;;4.55;;
53497;SDS011;39382;47.168;16.008;2023-03-23T15:12:36;11.73;;;3.80;;
53497;SDS011;39382;47.168;16.008;2023-03-23T15:15:03;6.43;;;3.92;;
53497;SDS011;39382;47.168;16.008;2023-03-23T15:17:36;5.82;;;3.25;;
53497;SDS011;39382;47.168;16.008;2023-03-23T15:20:43;4.47;;;3.03;;
53497;SDS011;39382;47.168;16.008;2023-03-23T15:22:56;9.80;;;4.10;;
53497;SDS011;39382;47.168;16.008;2023-03-23T15:25:31;8.13;;;4.07;;
53497;SDS011;39382;47.168;16.008;2023-03-23T15:28:06;6.18;;;4.00;;
53497;SDS011;39382;47.168;16.008;2023-03-23T15:30:47;5.53;;;4.20;;
53497;SDS011;39382;47.168;16.008;2023-03-23T15:33:16;8.65;;;4.20;;
53497;SDS011;39382;47.168;16.008;2023-03-23T15:35:46;5.20;;;3.65;;
53497;SDS011;39382;47.168;16.008;2023-03-23T15:38:21;5.80;;;3.75;;
53497;SDS011;39382;47.168;16.008;2023-03-23T15:40:51;4.78;;;3.50;;
53497;SDS011;39382;47.168;16.008;2023-03-23T15:43:30;4.13;;;3.50;;
53497;SDS011;39382;47.168;16.008;2023-03-23T15:46:04;8.15;;;3.72;;
53497;SDS011;39382;47.168;16.008;2023-03-23T15:51:20;8.00;;;4.10;;
53497;SDS011;39382;47.168;16.008;2023-03-23T15:53:48;3.55;;;2.85;;
53497;SDS011;39382;47.168;16.008;2023-03-23T15:56:15;6.90;;;3.33;;
53497;SDS011;39382;47.168;16.008;2023-03-23T15:58:42;10.10;;;4.45;;
53497;SDS011;39382;47.168;16.008;2023-03-23T16:01:10;8.65;;;4.18;;
53497;SDS011;39382;47.168;16.008;2023-03-23T16:03:39;9.30;;;3.78;;
53497;SDS011;39382;47.168;16.008;2023-03-23T16:06:11;4.78;;;3.38;;
53497;SDS011;39382;47.168;16.008;2023-03-23T16:08:40;8.43;;;3.67;;
53497;SDS011;39382;47.168;16.008;2023-03-23T16:11:12;6.50;;;4.47;;
53497;SDS011;39382;47.168;16.008;2023-03-23T16:13:39;6.88;;;4.07;;
53497;SDS011;39382;47.168;16.008;2023-03-23T16:16:06;8.77;;;3.20;;
53497;SDS011;39382;47.168;16.008;2023-03-23T16:18:40;7.85;;;2.97;;
53497;SDS011;39382;47.168;16.008;2023-03-23T16:21:06;4.25;;;2.60;;
53497;SDS011;39382;47.168;16.008;2023-03-23T16:23:32;3.30;;;2.55;;
53497;SDS011;39382;47.168;16.008;2023-03-23T16:25:57;2.60;;;2.20;;
53497;SDS011;39382;47.168;16.008;2023-03-23T16:28:23;4.80;;;2.13;;
53497;SDS011;39382;47.168;16.008;2023-03-23T16:30:49;6.32;;;2.55;;
53497;SDS011;39382;47.168;16.008;2023-03-23T16:33:15;4.03;;;2.35;;
53497;SDS011;39382;47.168;16.008;2023-03-23T16:35:40;3.50;;;2.10;;
53497;SDS011;39382;47.168;16.008;2023-03-23T16:38:09;9.63;;;2.53;;
53497;SDS011;39382;47.168;16.008;2023-03-23T16:40:41;7.32;;;2.35;;
53497;SDS011;39382;47.168;16.008;2023-03-23T16:43:08;5.10;;;2.50;;
53497;SDS011;39382;47.168;16.008;2023-03-23T16:45:34;6.60;;;2.28;;
53497;SDS011;39382;47.168;16.008;2023-03-23T16:48:00;6.68;;;2.33;;
53497;SDS011;39382;47.168;16.008;2023-03-23T16:50:27;3.35;;;2.90;;
53497;SDS011;39382;47.168;16.008;2023-03-23T16:52:54;5.50;;;2.33;;
53497;SDS011;39382;47.168;16.008;2023-03-23T16:55:20;11.07;;;2.78;;
53497;SDS011;39382;47.168;16.008;2023-03-23T16:57:46;6.35;;;2.60;;
53497;SDS011;39382;47.168;16.008;2023-03-23T17:00:13;4.07;;;2.40;;
53497;SDS011;39382;47.168;16.008;2023-03-23T17:02:44;3.58;;;2.40;;
53497;SDS011;39382;47.168;16.008;2023-03-23T17:05:11;6.15;;;2.15;;
53497;SDS011;39382;47.168;16.008;2023-03-23T17:07:38;5.15;;;3.35;;
53497;SDS011;39382;47.168;16.008;2023-03-23T17:10:06;4.72;;;2.25;;
53497;SDS011;39382;47.168;16.008;2023-03-23T17:12:34;3.08;;;2.33;;
53497;SDS011;39382;47.168;16.008;2023-03-23T17:15:00;5.88;;;3.22;;
53497;SDS011;39382;47.168;16.008;2023-03-23T17:17:27;3.22;;;2.53;;
53497;SDS011;39382;47.168;16.008;2023-03-23T17:19:53;2.38;;;1.98;;